Terminal Aerodrome Forecast
Issued by NWS Cleveland, OH

Home | Current Version | Previous Version | Graphics & Text | Print | Product List | Glossary On
Versions: 1 2 3 4 5 6 7 8 9 10 11 12 13 14
496
FTUS41 KCLE 191120
TAFTOL
TAF
KTOL 191120Z 1912/2012 26003KT P6SM SKC
     FM191500 26005KT P6SM SCT045
     FM192000 27006KT P6SM VCTS SCT045CB
     FM192200 28005KT P6SM SCT120 BKN250
     FM200800 00000KT 5SM BR SCT250
     FM201100 VRB03KT 3SM BR BKN060=

USA.gov is the U.S. government's official web portal to all federal, state and local government web resources and services.